createdAt,value
2023-03-29T00:00:34.403Z,100449.20
2023-03-29T00:03:16.598Z,100443.40
2023-03-29T00:05:44.907Z,100445.20
2023-03-29T00:08:14.813Z,100447.60
2023-03-29T00:10:42.970Z,100457.60
2023-03-29T00:13:11.216Z,100463.80
2023-03-29T00:15:39.234Z,100469.20
2023-03-29T00:18:07.223Z,100471.40
2023-03-29T00:20:35.386Z,100465.00
2023-03-29T00:23:03.336Z,100477.00
2023-03-29T00:25:31.365Z,100483.20
2023-03-29T00:27:59.320Z,100481.80
2023-03-29T00:30:27.563Z,100475.80
2023-03-29T00:32:56.021Z,100476.40
2023-03-29T00:35:24.098Z,100477.60
2023-03-29T00:37:53.166Z,100481.60
2023-03-29T00:40:21.163Z,100475.60
2023-03-29T00:42:49.107Z,100478.00
2023-03-29T00:45:19.119Z,100481.80
2023-03-29T00:47:50.822Z,100485.60
2023-03-29T00:50:25.884Z,100482.60
2023-03-29T00:53:15.381Z,100482.00
2023-03-29T00:55:47.706Z,100479.40
2023-03-29T00:58:17.997Z,100480.20
2023-03-29T01:00:52.677Z,100483.40
2023-03-29T01:03:25.947Z,100483.60
2023-03-29T01:05:57.774Z,100480.20
2023-03-29T01:08:32.164Z,100484.80
2023-03-29T01:11:22.263Z,100478.80
2023-03-29T01:14:00.174Z,100479.40
2023-03-29T01:16:28.704Z,100474.40
2023-03-29T01:19:00.464Z,100483.60
2023-03-29T01:21:39.820Z,100481.60
2023-03-29T01:24:26.239Z,100482.60
2023-03-29T01:27:42.026Z,100491.40
2023-03-29T01:30:14.254Z,100487.80
2023-03-29T01:32:42.125Z,100487.20
2023-03-29T01:35:13.542Z,100489.20
2023-03-29T01:37:53.072Z,100493.20
2023-03-29T01:40:21.098Z,100493.80
2023-03-29T01:43:05.481Z,100493.40
2023-03-29T01:45:48.908Z,100493.60
2023-03-29T01:48:39.393Z,100491.40
2023-03-29T01:51:09.718Z,100487.20
2023-03-29T01:53:55.055Z,100490.60
2023-03-29T01:56:25.189Z,100484.40
2023-03-29T01:58:56.700Z,100481.20
2023-03-29T02:01:27.593Z,100483.80
2023-03-29T02:04:00.421Z,100486.20
2023-03-29T02:06:28.490Z,100488.00
2023-03-29T02:08:56.340Z,100489.20
2023-03-29T02:11:24.753Z,100489.80
2023-03-29T02:13:53.424Z,100492.60
2023-03-29T02:16:21.552Z,100495.00
2023-03-29T02:18:50.446Z,100493.20
2023-03-29T02:21:27.234Z,100489.20
2023-03-29T02:23:55.494Z,100494.20
2023-03-29T02:26:24.336Z,100500.00
2023-03-29T02:28:53.446Z,100499.00
2023-03-29T02:31:26.275Z,100500.00
2023-03-29T02:34:02.859Z,100501.80
2023-03-29T02:36:44.868Z,100505.20
2023-03-29T02:39:15.701Z,100506.60
2023-03-29T02:41:46.103Z,100508.80
2023-03-29T02:44:17.060Z,100510.80
2023-03-29T02:46:45.603Z,100514.60
2023-03-29T02:49:13.551Z,100511.60
2023-03-29T02:51:41.407Z,100512.20
2023-03-29T02:54:13.931Z,100512.00
2023-03-29T02:56:46.343Z,100516.80
2023-03-29T02:59:14.484Z,100520.40
2023-03-29T03:01:45.689Z,100522.60
2023-03-29T03:04:13.951Z,100525.40
2023-03-29T03:06:41.913Z,100522.00
2023-03-29T03:09:11.239Z,100530.00
2023-03-29T03:11:41.927Z,100528.80
2023-03-29T03:14:09.818Z,100527.40
2023-03-29T03:16:37.909Z,100529.60
2023-03-29T03:19:06.991Z,100529.80
2023-03-29T03:21:37.775Z,100531.20
2023-03-29T03:24:07.652Z,100537.20
2023-03-29T03:26:38.480Z,100537.80
2023-03-29T03:29:06.943Z,100541.00
2023-03-29T03:32:04.483Z,100543.60
2023-03-29T03:34:53.029Z,100545.00
2023-03-29T03:37:23.710Z,100547.20
2023-03-29T03:39:52.058Z,100547.60
2023-03-29T03:42:20.184Z,100551.20
2023-03-29T03:44:48.502Z,100549.00
2023-03-29T03:47:39.677Z,100550.20
2023-03-29T03:50:19.352Z,100549.60
2023-03-29T03:52:47.742Z,100545.20
2023-03-29T03:55:16.596Z,100555.00
2023-03-29T03:57:52.711Z,100548.00
2023-03-29T04:00:21.470Z,100554.40
2023-03-29T04:03:25.078Z,100557.80
2023-03-29T04:05:54.005Z,100556.60
2023-03-29T04:08:23.243Z,100559.00
2023-03-29T04:11:10.530Z,100566.80
2023-03-29T04:13:40.100Z,100565.40
2023-03-29T04:16:28.614Z,100559.40
2023-03-29T04:18:58.277Z,100558.80
2023-03-29T04:21:26.484Z,100563.00
2023-03-29T04:23:54.781Z,100565.00
2023-03-29T04:26:23.570Z,100567.00
2023-03-29T04:29:04.889Z,100563.20
2023-03-29T04:31:46.717Z,100566.00
2023-03-29T04:34:38.450Z,100569.20
2023-03-29T04:37:10.302Z,100563.80
2023-03-29T04:39:38.934Z,100566.80
2023-03-29T04:42:07.473Z,100565.40
2023-03-29T04:44:37.085Z,100568.60
2023-03-29T04:47:06.247Z,100568.80
2023-03-29T04:49:53.608Z,100568.60
2023-03-29T04:52:33.368Z,100575.40
2023-03-29T04:55:02.172Z,100576.00
2023-03-29T04:57:44.752Z,100577.80
2023-03-29T05:00:21.342Z,100586.00
2023-03-29T05:03:10.157Z,100591.00
2023-03-29T05:05:39.502Z,100596.40
2023-03-29T05:08:09.481Z,100604.00
2023-03-29T05:10:56.284Z,100605.20
2023-03-29T05:13:26.327Z,100612.40
2023-03-29T05:15:54.335Z,100618.60
2023-03-29T05:18:22.389Z,100613.20
2023-03-29T05:20:53.134Z,100620.40
2023-03-29T05:23:21.421Z,100621.40
2023-03-29T05:26:09.984Z,100624.00
2023-03-29T05:28:38.736Z,100629.00
2023-03-29T05:31:07.924Z,100630.40
2023-03-29T05:33:38.009Z,100632.00
2023-03-29T05:36:11.329Z,100638.20
2023-03-29T05:38:42.279Z,100640.80
2023-03-29T05:41:10.944Z,100643.20
2023-03-29T05:43:47.582Z,100649.00
2023-03-29T05:46:16.581Z,100648.40
2023-03-29T05:48:49.362Z,100648.60
2023-03-29T05:51:18.959Z,100648.00
2023-03-29T05:53:46.935Z,100654.20
2023-03-29T05:56:16.475Z,100655.80
2023-03-29T05:58:46.857Z,100662.00
2023-03-29T06:01:15.004Z,100664.20
2023-03-29T06:03:53.574Z,100658.00
2023-03-29T06:06:23.245Z,100658.40
2023-03-29T06:08:51.356Z,100661.00
2023-03-29T06:11:26.596Z,100665.00
2023-03-29T06:14:16.090Z,100666.60
2023-03-29T06:16:48.754Z,100662.20
2023-03-29T06:19:17.424Z,100672.60
2023-03-29T06:21:45.429Z,100676.20
2023-03-29T06:24:16.282Z,100683.20
2023-03-29T06:26:48.219Z,100684.20
2023-03-29T06:29:16.695Z,100691.60
2023-03-29T06:31:45.457Z,100693.60
2023-03-29T06:34:27.326Z,100691.00
2023-03-29T06:37:05.937Z,100695.20
2023-03-29T06:39:33.924Z,100699.20
2023-03-29T06:42:28.698Z,100697.20
2023-03-29T06:45:23.269Z,100699.20
2023-03-29T06:47:52.630Z,100702.80
2023-03-29T06:50:20.955Z,100701.80
2023-03-29T06:52:58.578Z,100705.40
2023-03-29T06:55:27.389Z,100707.00
2023-03-29T06:57:55.574Z,100705.60
2023-03-29T07:00:35.863Z,100705.80
2023-03-29T07:03:20.672Z,100704.60
2023-03-29T07:05:52.293Z,100700.40
2023-03-29T07:08:22.576Z,100698.80
2023-03-29T07:11:04.021Z,100696.60
2023-03-29T07:13:56.293Z,100687.80
2023-03-29T07:16:24.349Z,100695.20
2023-03-29T07:19:11.122Z,100693.20
2023-03-29T07:21:54.442Z,100688.60
2023-03-29T07:24:25.028Z,100687.60
2023-03-29T07:27:03.439Z,100692.00
2023-03-29T07:29:32.752Z,100687.80
2023-03-29T07:32:01.051Z,100693.80
2023-03-29T07:34:42.198Z,100699.00
2023-03-29T07:37:13.809Z,100706.40
2023-03-29T07:39:43.147Z,100697.20
2023-03-29T07:42:37.006Z,100703.40
2023-03-29T07:45:07.099Z,100696.20
2023-03-29T07:47:39.512Z,100696.20
2023-03-29T07:50:08.768Z,100699.20
2023-03-29T07:52:38.326Z,100701.00
2023-03-29T07:55:08.249Z,100711.20
2023-03-29T07:57:56.652Z,100701.00
2023-03-29T08:00:25.417Z,100711.20
2023-03-29T08:03:13.342Z,100705.00
2023-03-29T08:05:42.344Z,100701.40
2023-03-29T08:08:16.454Z,100708.00
2023-03-29T08:10:57.709Z,100712.00
2023-03-29T08:13:55.105Z,100703.80
2023-03-29T08:16:51.636Z,100698.60
2023-03-29T08:19:21.751Z,100701.20
2023-03-29T08:22:01.026Z,100712.40
2023-03-29T08:24:35.240Z,100708.80
2023-03-29T08:27:06.279Z,100706.60
2023-03-29T08:29:34.811Z,100714.80
2023-03-29T08:32:03.153Z,100715.20
2023-03-29T08:34:31.843Z,100705.40
2023-03-29T08:37:28.785Z,100709.80
2023-03-29T08:39:57.596Z,100715.00
2023-03-29T08:42:54.362Z,100716.80
2023-03-29T08:45:39.685Z,100715.80
2023-03-29T08:48:18.686Z,100714.00
2023-03-29T08:51:21.620Z,100707.20
2023-03-29T08:54:01.437Z,100708.40
2023-03-29T08:56:46.426Z,100708.40
2023-03-29T08:59:32.140Z,100714.00
2023-03-29T09:02:02.671Z,100710.60
2023-03-29T09:04:35.690Z,100708.60
2023-03-29T09:07:11.115Z,100700.40
2023-03-29T09:09:45.109Z,100705.40
2023-03-29T09:12:36.727Z,100707.80
2023-03-29T09:15:19.723Z,100706.00
2023-03-29T09:18:08.358Z,100706.60
2023-03-29T09:20:48.064Z,100701.40
2023-03-29T09:23:35.158Z,100706.20
2023-03-29T09:26:14.933Z,100709.40
2023-03-29T09:29:23.974Z,100705.00
2023-03-29T09:31:52.394Z,100707.00
2023-03-29T09:34:28.474Z,100708.20
2023-03-29T09:37:01.066Z,100709.60
2023-03-29T09:39:29.166Z,100703.80
2023-03-29T09:42:05.813Z,100717.20
2023-03-29T09:44:43.924Z,100716.60
2023-03-29T09:47:27.161Z,100714.20
2023-03-29T09:49:57.859Z,100715.40
2023-03-29T09:52:26.244Z,100712.00
2023-03-29T09:55:02.365Z,100714.00
2023-03-29T09:58:22.575Z,100709.20
2023-03-29T10:00:51.834Z,100718.00
2023-03-29T10:03:27.777Z,100707.20
2023-03-29T10:06:06.738Z,100704.60
2023-03-29T10:08:42.471Z,100687.00
2023-03-29T10:11:20.166Z,100688.60
2023-03-29T10:13:50.636Z,100686.80
2023-03-29T10:16:23.436Z,100689.60
2023-03-29T10:18:51.956Z,100694.40
2023-03-29T10:21:21.031Z,100690.20
2023-03-29T10:23:49.560Z,100676.80
2023-03-29T10:26:31.908Z,100687.00
2023-03-29T10:29:01.911Z,100674.20
2023-03-29T10:31:33.567Z,100684.80
2023-03-29T10:34:05.346Z,100683.60
2023-03-29T10:36:33.267Z,100685.20
2023-03-29T10:39:05.582Z,100683.80
2023-03-29T10:41:34.557Z,100676.80
2023-03-29T10:44:02.724Z,100678.40
2023-03-29T10:46:32.701Z,100675.40
2023-03-29T10:49:06.341Z,100674.40
2023-03-29T10:51:34.722Z,100683.80
2023-03-29T10:54:03.114Z,100687.60
2023-03-29T10:56:37.116Z,100683.00
2023-03-29T10:59:24.430Z,100672.20
2023-03-29T11:02:01.172Z,100671.20
2023-03-29T11:04:29.171Z,100675.60
2023-03-29T11:07:15.654Z,100676.60
2023-03-29T11:09:49.878Z,100668.20
2023-03-29T11:12:45.619Z,100662.80
2023-03-29T11:15:54.701Z,100662.80
2023-03-29T11:18:30.467Z,100660.60
2023-03-29T11:21:08.423Z,100661.00
2023-03-29T11:24:01.049Z,100657.00
2023-03-29T11:26:54.279Z,100659.80
2023-03-29T11:29:49.832Z,100654.20
2023-03-29T11:32:29.462Z,100653.40
2023-03-29T11:35:03.380Z,100648.00
2023-03-29T11:37:37.362Z,100651.00
2023-03-29T11:40:44.606Z,100650.80
2023-03-29T11:43:17.285Z,100646.60
2023-03-29T11:45:57.893Z,100644.00
2023-03-29T11:48:34.823Z,100644.60
2023-03-29T11:51:38.135Z,100647.20
2023-03-29T11:54:22.809Z,100650.00
2023-03-29T11:57:21.255Z,100639.80
2023-03-29T12:00:04.453Z,100641.20
2023-03-29T12:02:42.812Z,100639.20
2023-03-29T12:05:27.437Z,100644.20
2023-03-29T12:08:00.485Z,100643.60
2023-03-29T12:10:35.950Z,100641.00
2023-03-29T12:13:07.136Z,100636.60
2023-03-29T12:15:46.104Z,100636.40
2023-03-29T12:18:25.347Z,100625.00
2023-03-29T12:20:57.686Z,100632.20
2023-03-29T12:23:29.911Z,100630.00
2023-03-29T12:26:03.985Z,100633.60
2023-03-29T12:28:56.778Z,100634.60
2023-03-29T12:31:29.045Z,100634.60
2023-03-29T12:34:12.337Z,100632.00
2023-03-29T12:37:11.099Z,100627.20
2023-03-29T12:40:10.137Z,100626.20
2023-03-29T12:43:32.747Z,100624.80
2023-03-29T12:46:26.711Z,100620.80
2023-03-29T12:48:58.391Z,100626.40
2023-03-29T12:51:31.597Z,100620.80
2023-03-29T12:54:13.455Z,100622.60
2023-03-29T12:56:56.743Z,100629.80
2023-03-29T12:59:37.513Z,100624.00
2023-03-29T13:02:14.750Z,100624.40
2023-03-29T13:04:43.525Z,100624.60
2023-03-29T13:07:24.215Z,100619.80
2023-03-29T13:09:53.756Z,100615.60
2023-03-29T13:12:37.450Z,100618.60
2023-03-29T13:15:14.762Z,100622.80
2023-03-29T13:18:23.600Z,100622.60
2023-03-29T13:21:12.116Z,100623.80
2023-03-29T13:24:11.880Z,100617.60
2023-03-29T13:27:26.408Z,100623.00
2023-03-29T13:30:29.717Z,100614.80
2023-03-29T13:33:07.433Z,100619.80
2023-03-29T13:36:03.155Z,100609.80
2023-03-29T13:38:35.525Z,100616.20
2023-03-29T13:41:23.448Z,100614.00
2023-03-29T13:43:55.236Z,100620.40
2023-03-29T13:46:41.078Z,100625.60
2023-03-29T13:49:13.120Z,100618.40
2023-03-29T13:51:42.981Z,100615.60
2023-03-29T13:54:19.243Z,100609.20
2023-03-29T13:57:08.929Z,100605.40
2023-03-29T13:59:50.426Z,100609.40
2023-03-29T14:02:38.694Z,100618.40
2023-03-29T14:05:08.821Z,100609.60
2023-03-29T14:07:38.077Z,100604.20
2023-03-29T14:10:06.509Z,100613.20
2023-03-29T14:12:38.849Z,100611.00
2023-03-29T14:15:17.886Z,100609.20
2023-03-29T14:17:46.212Z,100614.40
2023-03-29T14:20:14.899Z,100618.20
2023-03-29T14:22:42.843Z,100614.80
2023-03-29T14:25:17.356Z,100612.80
2023-03-29T14:27:45.408Z,100612.60
2023-03-29T14:30:27.587Z,100625.00
2023-03-29T14:32:56.810Z,100619.20
2023-03-29T14:35:30.295Z,100616.00
2023-03-29T14:37:58.868Z,100615.20
2023-03-29T14:40:27.807Z,100612.00
2023-03-29T14:42:56.415Z,100620.00
2023-03-29T14:45:24.469Z,100613.00
2023-03-29T14:47:52.887Z,100611.60
2023-03-29T14:50:28.950Z,100620.60
2023-03-29T14:52:57.752Z,100613.60
2023-03-29T14:55:25.886Z,100616.40
2023-03-29T14:57:54.637Z,100616.00
2023-03-29T15:00:26.098Z,100620.80
2023-03-29T15:03:01.846Z,100618.40
2023-03-29T15:05:35.656Z,100628.00
2023-03-29T15:08:04.011Z,100623.00
2023-03-29T15:10:33.033Z,100633.40
2023-03-29T15:13:02.734Z,100625.80
2023-03-29T15:15:32.217Z,100630.40
2023-03-29T15:18:00.861Z,100630.20
2023-03-29T15:20:38.806Z,100621.60
2023-03-29T15:23:16.471Z,100626.00
2023-03-29T15:26:12.827Z,100624.60
2023-03-29T15:28:55.575Z,100626.40
2023-03-29T15:31:32.491Z,100627.60
2023-03-29T15:34:06.229Z,100632.40
2023-03-29T15:36:35.494Z,100631.40
2023-03-29T15:39:03.816Z,100629.20
2023-03-29T15:41:32.142Z,100624.20
2023-03-29T15:44:00.124Z,100636.60
2023-03-29T15:46:28.191Z,100632.40
2023-03-29T15:48:56.091Z,100636.80
2023-03-29T15:51:24.013Z,100635.20
2023-03-29T15:53:52.033Z,100636.80
2023-03-29T15:56:20.524Z,100634.20
2023-03-29T15:58:48.988Z,100633.00
2023-03-29T16:01:23.794Z,100635.80
2023-03-29T16:03:51.957Z,100633.40
2023-03-29T16:06:22.350Z,100631.20
2023-03-29T16:08:50.348Z,100635.40
2023-03-29T16:11:18.191Z,100637.20
2023-03-29T16:13:46.407Z,100634.00
2023-03-29T16:16:14.423Z,100634.40
2023-03-29T16:18:42.488Z,100641.20
2023-03-29T16:21:14.282Z,100640.80
2023-03-29T16:23:42.923Z,100646.60
2023-03-29T16:26:12.463Z,100642.00
2023-03-29T16:28:41.121Z,100645.20
2023-03-29T16:31:12.978Z,100652.80
2023-03-29T16:33:41.497Z,100652.00
2023-03-29T16:36:12.569Z,100649.00
2023-03-29T16:38:40.976Z,100659.00
2023-03-29T16:41:14.093Z,100661.00
2023-03-29T16:43:42.145Z,100662.20
2023-03-29T16:46:11.045Z,100666.40
2023-03-29T16:48:39.153Z,100670.80
2023-03-29T16:51:07.326Z,100671.40
2023-03-29T16:53:35.801Z,100678.00
2023-03-29T16:56:04.589Z,100674.00
2023-03-29T16:58:33.081Z,100672.40
2023-03-29T17:01:11.767Z,100676.20
2023-03-29T17:03:39.796Z,100680.00
2023-03-29T17:06:09.084Z,100681.40
2023-03-29T17:08:42.538Z,100685.20
2023-03-29T17:11:11.845Z,100688.40
2023-03-29T17:13:40.354Z,100697.60
2023-03-29T17:16:08.564Z,100697.20
2023-03-29T17:18:36.763Z,100703.80
2023-03-29T17:21:05.901Z,100711.20
2023-03-29T17:23:34.050Z,100706.60
2023-03-29T17:26:02.433Z,100716.40
2023-03-29T17:28:30.731Z,100722.00
2023-03-29T17:30:58.766Z,100724.40
2023-03-29T17:33:26.764Z,100723.60
2023-03-29T17:35:54.810Z,100726.80
2023-03-29T17:38:22.879Z,100729.60
2023-03-29T17:40:54.066Z,100730.00
2023-03-29T17:43:22.060Z,100733.40
2023-03-29T17:45:53.893Z,100736.20
2023-03-29T17:48:22.896Z,100740.00
2023-03-29T17:50:51.063Z,100741.20
2023-03-29T17:53:19.184Z,100746.00
2023-03-29T17:55:47.115Z,100755.60
2023-03-29T17:58:15.405Z,100752.80
2023-03-29T18:00:52.621Z,100763.00
2023-03-29T18:03:20.743Z,100759.60
2023-03-29T18:05:48.742Z,100766.40
2023-03-29T18:08:16.893Z,100767.40
2023-03-29T18:10:45.011Z,100769.40
2023-03-29T18:13:14.784Z,100774.60
2023-03-29T18:15:45.314Z,100769.40
2023-03-29T18:18:16.793Z,100778.80
2023-03-29T18:20:45.459Z,100782.20
2023-03-29T18:23:13.868Z,100787.20
2023-03-29T18:25:42.803Z,100790.60
2023-03-29T18:28:10.945Z,100793.00
2023-03-29T18:30:42.749Z,100796.00
2023-03-29T18:33:12.272Z,100798.00
2023-03-29T18:35:40.633Z,100799.60
2023-03-29T18:38:08.797Z,100799.60
2023-03-29T18:40:38.181Z,100802.40
2023-03-29T18:43:09.380Z,100806.00
2023-03-29T18:45:39.679Z,100808.40
2023-03-29T18:48:08.056Z,100809.20
2023-03-29T18:50:36.263Z,100810.40
2023-03-29T18:53:04.429Z,100807.60
2023-03-29T18:55:32.456Z,100807.80
2023-03-29T18:58:00.780Z,100810.80
2023-03-29T19:00:31.571Z,100807.40
2023-03-29T19:02:59.555Z,100809.20
2023-03-29T19:05:27.702Z,100814.00
2023-03-29T19:07:56.526Z,100811.80
2023-03-29T19:10:27.572Z,100803.80
2023-03-29T19:12:55.497Z,100803.60
2023-03-29T19:15:23.347Z,100803.00
2023-03-29T19:17:51.385Z,100803.00
2023-03-29T19:20:21.016Z,100804.00
2023-03-29T19:22:49.028Z,100807.00
2023-03-29T19:25:17.059Z,100805.60
2023-03-29T19:27:47.980Z,100808.00
2023-03-29T19:30:17.427Z,100805.40
2023-03-29T19:32:45.658Z,100806.00
2023-03-29T19:35:13.642Z,100804.40
2023-03-29T19:37:42.709Z,100805.60
2023-03-29T19:40:13.649Z,100810.80
2023-03-29T19:42:41.654Z,100811.60
2023-03-29T19:45:10.286Z,100809.40
2023-03-29T19:47:38.235Z,100814.40
2023-03-29T19:50:07.096Z,100812.40
2023-03-29T19:52:35.221Z,100810.60
2023-03-29T19:55:04.012Z,100812.00
2023-03-29T19:57:32.187Z,100809.20
2023-03-29T20:00:00.300Z,100806.80
2023-03-29T20:02:28.212Z,100811.40
2023-03-29T20:04:57.733Z,100808.20
2023-03-29T20:07:25.885Z,100806.80
2023-03-29T20:09:53.811Z,100807.40
2023-03-29T20:12:21.828Z,100808.40
2023-03-29T20:14:49.746Z,100805.00
2023-03-29T20:17:17.702Z,100806.60
2023-03-29T20:19:45.658Z,100807.80
2023-03-29T20:22:13.754Z,100810.00
2023-03-29T20:24:41.702Z,100809.40
2023-03-29T20:27:09.682Z,100814.00
2023-03-29T20:29:37.922Z,100819.00
2023-03-29T20:32:06.142Z,100809.80
2023-03-29T20:34:34.141Z,100813.00
2023-03-29T20:37:02.136Z,100812.80
2023-03-29T20:39:31.508Z,100807.80
2023-03-29T20:42:00.630Z,100806.40
2023-03-29T20:44:28.665Z,100805.00
2023-03-29T20:47:04.248Z,100803.00
2023-03-29T20:49:39.224Z,100799.20
2023-03-29T20:52:10.702Z,100800.40
2023-03-29T20:54:38.881Z,100802.00
2023-03-29T20:57:07.942Z,100798.80
2023-03-29T20:59:36.193Z,100797.00
2023-03-29T21:02:04.515Z,100798.60
2023-03-29T21:04:32.569Z,100797.80
2023-03-29T21:07:03.365Z,100798.60
2023-03-29T21:09:34.181Z,100796.20
2023-03-29T21:12:02.741Z,100792.80
2023-03-29T21:14:33.159Z,100798.80
2023-03-29T21:17:01.538Z,100798.40
2023-03-29T21:19:29.618Z,100797.00
2023-03-29T21:21:58.993Z,100805.80
2023-03-29T21:24:26.961Z,100807.60
2023-03-29T21:26:54.879Z,100808.40
2023-03-29T21:29:23.110Z,100816.40
2023-03-29T21:31:51.183Z,100810.60
2023-03-29T21:34:19.295Z,100819.80
2023-03-29T21:36:47.231Z,100817.40
2023-03-29T21:39:15.282Z,100813.80
2023-03-29T21:41:43.323Z,100821.80
2023-03-29T21:44:11.612Z,100817.20
2023-03-29T21:46:39.571Z,100810.60
2023-03-29T21:49:07.798Z,100808.00
2023-03-29T21:51:35.818Z,100805.60
2023-03-29T21:54:04.119Z,100797.00
2023-03-29T21:56:31.910Z,100801.40
2023-03-29T21:58:59.919Z,100805.60
2023-03-29T22:01:28.224Z,100807.40
2023-03-29T22:03:56.993Z,100801.60
2023-03-29T22:06:25.061Z,100804.40
2023-03-29T22:08:53.234Z,100804.00
2023-03-29T22:11:21.413Z,100806.40
2023-03-29T22:13:51.600Z,100806.80
2023-03-29T22:16:19.671Z,100809.20
2023-03-29T22:18:49.357Z,100803.80
2023-03-29T22:21:25.089Z,100802.40
2023-03-29T22:23:54.708Z,100803.80
2023-03-29T22:26:24.609Z,100803.60
2023-03-29T22:28:52.617Z,100801.20
2023-03-29T22:31:21.685Z,100802.40
2023-03-29T22:33:49.767Z,100800.20
2023-03-29T22:36:29.004Z,100795.80
2023-03-29T22:38:57.146Z,100794.00
2023-03-29T22:41:26.301Z,100797.80
2023-03-29T22:43:56.012Z,100798.60
2023-03-29T22:46:24.037Z,100798.40
2023-03-29T22:48:52.570Z,100796.80
2023-03-29T22:51:20.921Z,100792.00
2023-03-29T22:53:48.906Z,100791.20
2023-03-29T22:56:17.264Z,100791.20
2023-03-29T22:58:45.877Z,100791.20
2023-03-29T23:01:13.878Z,100788.80
2023-03-29T23:03:41.856Z,100791.40
2023-03-29T23:06:09.901Z,100790.40
2023-03-29T23:08:37.991Z,100791.20
2023-03-29T23:11:07.527Z,100791.20
2023-03-29T23:13:35.502Z,100793.40
2023-03-29T23:16:03.832Z,100799.60
2023-03-29T23:18:32.378Z,100797.80
2023-03-29T23:21:01.668Z,100801.00
2023-03-29T23:23:30.069Z,100799.60
2023-03-29T23:25:57.894Z,100795.80
2023-03-29T23:28:27.536Z,100795.20
2023-03-29T23:30:57.855Z,100795.80
2023-03-29T23:33:26.033Z,100799.40
2023-03-29T23:35:54.458Z,100801.00
2023-03-29T23:38:23.085Z,100797.60
2023-03-29T23:40:59.192Z,100805.20
2023-03-29T23:43:35.147Z,100804.20
2023-03-29T23:46:08.030Z,100803.80
2023-03-29T23:48:36.178Z,100808.20
2023-03-29T23:51:04.447Z,100811.60
2023-03-29T23:53:32.757Z,100819.00
2023-03-29T23:56:02.494Z,100820.00
2023-03-29T23:58:32.400Z,100818.80
